createdAt,value
2017-10-09T00:01:13.190Z,3.00
2017-10-09T00:03:40.658Z,2.85
2017-10-09T00:06:08.168Z,3.00
2017-10-09T00:08:35.622Z,3.23
2017-10-09T00:11:03.107Z,2.90
2017-10-09T00:13:31.403Z,3.57
2017-10-09T00:15:58.904Z,3.20
2017-10-09T00:18:26.378Z,3.33
2017-10-09T00:20:53.834Z,3.43
2017-10-09T00:23:21.369Z,3.73
2017-10-09T00:25:48.843Z,3.70
2017-10-09T00:28:16.331Z,3.42
2017-10-09T00:30:44.576Z,4.03
2017-10-09T00:33:12.076Z,3.83
2017-10-09T00:35:40.328Z,4.10
2017-10-09T00:38:07.789Z,3.63
2017-10-09T00:40:35.282Z,3.50
2017-10-09T00:43:02.813Z,3.47
2017-10-09T00:45:31.176Z,2.72
2017-10-09T00:47:58.643Z,3.10
2017-10-09T00:50:26.133Z,2.90
2017-10-09T00:52:53.601Z,2.77
2017-10-09T00:55:21.106Z,3.07
2017-10-09T00:57:48.574Z,2.50
2017-10-09T01:00:16.084Z,2.80
2017-10-09T01:02:43.556Z,2.00
2017-10-09T01:05:11.019Z,2.20
2017-10-09T01:07:38.541Z,2.03
2017-10-09T01:10:06.763Z,2.20
2017-10-09T01:12:34.267Z,2.10
2017-10-09T01:15:02.520Z,2.07
2017-10-09T01:17:30.010Z,2.45
2017-10-09T01:19:57.492Z,2.07
2017-10-09T01:22:24.974Z,2.08
2017-10-09T01:24:52.479Z,2.33
2017-10-09T01:27:20.760Z,2.47
2017-10-09T01:29:49.027Z,2.50
2017-10-09T01:32:17.250Z,2.83
2017-10-09T01:34:44.743Z,3.27
2017-10-09T01:37:12.222Z,3.07
2017-10-09T01:39:39.696Z,3.33
2017-10-09T01:42:07.230Z,3.13
2017-10-09T01:44:35.450Z,3.47
2017-10-09T01:47:02.952Z,4.00
2017-10-09T01:49:30.415Z,3.90
2017-10-09T01:51:58.664Z,4.43
2017-10-09T01:54:26.151Z,4.43
2017-10-09T01:56:53.646Z,4.40
2017-10-09T01:59:21.129Z,3.75
2017-10-09T02:01:48.596Z,3.50
2017-10-09T02:04:16.091Z,3.83
2017-10-09T02:06:43.543Z,3.57
2017-10-09T02:09:11.059Z,3.77
2017-10-09T02:11:38.520Z,3.60
2017-10-09T02:14:06.029Z,3.80
2017-10-09T02:16:34.287Z,3.50
2017-10-09T02:19:01.760Z,3.40
2017-10-09T02:21:30.021Z,2.40
2017-10-09T02:23:57.528Z,2.03
2017-10-09T02:26:25.003Z,2.47
2017-10-09T02:28:52.478Z,2.50
2017-10-09T02:31:19.958Z,2.07
2017-10-09T02:33:47.470Z,1.92
2017-10-09T02:36:14.960Z,2.30
2017-10-09T02:38:42.454Z,2.27
2017-10-09T02:41:10.720Z,2.17
2017-10-09T02:43:38.208Z,2.47
2017-10-09T02:46:05.661Z,1.87
2017-10-09T02:48:33.159Z,2.70
2017-10-09T02:51:00.651Z,2.83
2017-10-09T02:53:28.098Z,2.60
2017-10-09T02:55:55.609Z,2.67
2017-10-09T02:58:23.099Z,2.63
2017-10-09T03:00:50.596Z,2.55
2017-10-09T03:03:18.826Z,2.93
2017-10-09T03:05:46.282Z,3.00
2017-10-09T03:08:13.775Z,2.60
2017-10-09T03:10:42.020Z,2.50
2017-10-09T03:13:09.500Z,3.10
2017-10-09T03:15:36.962Z,2.90
2017-10-09T03:18:04.468Z,3.30
2017-10-09T03:20:31.959Z,2.77
2017-10-09T03:23:10.395Z,3.20
2017-10-09T03:28:58.177Z,2.67
2017-10-09T03:31:26.403Z,2.83
2017-10-09T03:33:53.895Z,3.30
2017-10-09T03:36:22.136Z,3.33
2017-10-09T03:38:49.615Z,2.83
2017-10-09T03:41:17.128Z,2.70
2017-10-09T03:43:44.634Z,3.33
2017-10-09T03:46:12.096Z,3.60
2017-10-09T03:48:39.574Z,2.90
2017-10-09T03:51:07.835Z,2.80
2017-10-09T03:53:35.307Z,2.67
2017-10-09T03:56:03.567Z,2.60
2017-10-09T03:58:31.035Z,2.87
2017-10-09T04:00:59.306Z,2.77
2017-10-09T04:03:26.767Z,2.25
2017-10-09T04:05:54.249Z,3.30
2017-10-09T04:08:22.506Z,2.67
2017-10-09T04:10:50.002Z,2.40
2017-10-09T04:13:17.490Z,2.87
2017-10-09T04:15:44.962Z,2.80
2017-10-09T04:18:12.468Z,2.60
2017-10-09T04:20:40.675Z,3.03
2017-10-09T04:23:08.174Z,3.33
2017-10-09T04:25:35.636Z,2.53
2017-10-09T04:28:03.094Z,2.63
2017-10-09T04:30:31.386Z,3.00
2017-10-09T04:32:59.621Z,2.57
2017-10-09T04:35:27.090Z,2.70
2017-10-09T04:37:54.578Z,5.30
2017-10-09T04:40:22.859Z,4.10
2017-10-09T04:42:51.079Z,4.43
2017-10-09T04:45:18.540Z,3.40
2017-10-09T04:47:46.036Z,3.20
2017-10-09T04:50:14.264Z,3.90
2017-10-09T04:52:41.759Z,2.90
2017-10-09T04:55:09.226Z,2.80
2017-10-09T04:57:36.726Z,2.53
2017-10-09T05:00:04.221Z,2.50
2017-10-09T05:02:31.687Z,2.60
2017-10-09T05:04:59.174Z,2.50
2017-10-09T05:07:27.441Z,2.67
2017-10-09T05:09:54.919Z,2.90
2017-10-09T05:12:22.409Z,3.40
2017-10-09T05:14:49.898Z,3.80
2017-10-09T05:17:17.402Z,3.00
2017-10-09T05:19:44.887Z,3.87
2017-10-09T05:22:12.385Z,4.10
2017-10-09T05:24:39.845Z,4.97
2017-10-09T05:27:08.130Z,4.63
2017-10-09T05:29:36.391Z,5.40
2017-10-09T05:32:04.431Z,4.80
2017-10-09T05:34:31.916Z,6.00
2017-10-09T05:36:59.404Z,5.30
2017-10-09T05:39:26.994Z,6.93
2017-10-09T05:41:54.475Z,6.80
2017-10-09T05:44:21.983Z,6.00
2017-10-09T05:46:50.223Z,5.68
2017-10-09T05:49:17.715Z,5.85
2017-10-09T05:51:45.218Z,6.43
2017-10-09T05:54:12.719Z,5.00
2017-10-09T05:56:40.200Z,5.70
2017-10-09T05:59:07.680Z,6.90
2017-10-09T06:01:35.141Z,6.23
2017-10-09T06:04:02.624Z,5.70
2017-10-09T06:06:30.110Z,6.33
2017-10-09T06:08:58.368Z,6.03
2017-10-09T06:11:25.834Z,6.03
2017-10-09T06:13:53.309Z,5.40
2017-10-09T06:16:21.546Z,6.63
2017-10-09T06:18:49.044Z,6.40
2017-10-09T06:21:17.277Z,6.43
2017-10-09T06:23:44.768Z,7.37
2017-10-09T06:26:12.230Z,7.30
2017-10-09T06:28:40.463Z,6.57
2017-10-09T06:31:07.980Z,6.70
2017-10-09T06:33:36.310Z,6.68
2017-10-09T06:36:03.845Z,6.67
2017-10-09T06:38:32.163Z,7.07
2017-10-09T06:40:59.641Z,7.57
2017-10-09T06:43:27.112Z,8.50
2017-10-09T06:45:55.802Z,8.10
2017-10-09T06:48:25.575Z,6.70
2017-10-09T06:50:53.943Z,7.80
2017-10-09T06:53:22.176Z,7.10
2017-10-09T06:55:49.667Z,7.20
2017-10-09T06:58:17.174Z,7.10
2017-10-09T07:00:45.448Z,7.23
2017-10-09T07:03:13.692Z,7.75
2017-10-09T07:05:44.321Z,12.70
2017-10-09T07:08:11.828Z,8.97
2017-10-09T07:10:39.303Z,7.95
2017-10-09T07:13:06.818Z,17.67
2017-10-09T07:15:34.360Z,17.53
2017-10-09T07:18:02.597Z,9.38
2017-10-09T07:20:30.075Z,8.00
2017-10-09T07:22:57.579Z,9.70
2017-10-09T07:25:25.847Z,8.77
2017-10-09T07:27:53.348Z,7.87
2017-10-09T07:30:20.830Z,7.35
2017-10-09T07:32:48.337Z,8.38
2017-10-09T07:35:15.820Z,8.35
2017-10-09T07:37:43.323Z,7.70
2017-10-09T07:40:10.836Z,8.23
2017-10-09T07:42:38.303Z,8.55
2017-10-09T07:45:05.807Z,8.03
2017-10-09T07:47:33.275Z,7.00
2017-10-09T07:50:00.768Z,8.80
2017-10-09T07:52:28.267Z,8.87
2017-10-09T07:54:55.735Z,7.70
2017-10-09T07:57:23.238Z,7.07
2017-10-09T07:59:51.490Z,8.02
2017-10-09T08:02:19.010Z,6.75
2017-10-09T08:04:46.480Z,6.57
2017-10-09T08:07:13.984Z,7.10
2017-10-09T08:09:42.250Z,5.80
2017-10-09T08:12:09.774Z,6.10
2017-10-09T08:14:37.267Z,6.65
2017-10-09T08:17:05.536Z,6.00
2017-10-09T08:19:33.040Z,5.85
2017-10-09T08:22:00.523Z,5.87
2017-10-09T08:24:28.039Z,5.60
2017-10-09T08:26:56.331Z,5.50
2017-10-09T08:29:23.835Z,5.13
2017-10-09T08:31:51.309Z,5.50
2017-10-09T08:34:18.787Z,6.00
2017-10-09T08:36:47.046Z,5.73
2017-10-09T08:39:14.540Z,5.30
2017-10-09T08:41:42.053Z,5.17
2017-10-09T08:44:09.520Z,5.35
2017-10-09T08:46:37.067Z,5.50
2017-10-09T08:49:04.544Z,5.32
2017-10-09T08:51:32.823Z,5.03
2017-10-09T08:54:01.075Z,5.28
2017-10-09T08:56:28.583Z,5.55
2017-10-09T08:58:56.051Z,5.20
2017-10-09T09:01:23.548Z,4.10
2017-10-09T09:03:51.042Z,5.20
2017-10-09T09:06:19.299Z,5.47
2017-10-09T09:08:46.775Z,6.60
2017-10-09T09:11:15.016Z,6.15
2017-10-09T09:13:42.531Z,6.37
2017-10-09T09:16:10.812Z,6.03
2017-10-09T09:18:38.314Z,5.13
2017-10-09T09:21:05.800Z,4.83
2017-10-09T09:23:33.256Z,4.50
2017-10-09T09:26:01.515Z,4.40
2017-10-09T09:28:29.001Z,4.83
2017-10-09T09:30:56.509Z,4.50
2017-10-09T09:33:23.988Z,4.60
2017-10-09T09:35:51.535Z,5.30
2017-10-09T09:38:19.034Z,5.68
2017-10-09T09:40:46.503Z,6.50
2017-10-09T09:43:14.766Z,5.50
2017-10-09T09:45:42.235Z,6.17
2017-10-09T09:48:10.491Z,7.10
2017-10-09T09:50:37.964Z,7.30
2017-10-09T09:53:06.248Z,7.87
2017-10-09T09:55:34.477Z,7.00
2017-10-09T09:58:01.955Z,6.50
2017-10-09T10:00:29.510Z,5.80
2017-10-09T10:02:56.992Z,5.33
2017-10-09T10:05:25.313Z,6.60
2017-10-09T10:07:52.779Z,6.53
2017-10-09T10:10:20.307Z,6.90
2017-10-09T10:12:48.580Z,7.87
2017-10-09T10:15:16.886Z,5.90
2017-10-09T10:17:44.388Z,5.30
2017-10-09T10:20:11.842Z,4.83
2017-10-09T10:22:39.381Z,4.70
2017-10-09T10:25:06.871Z,5.03
2017-10-09T10:27:34.368Z,4.57
2017-10-09T10:30:01.833Z,5.13
2017-10-09T10:32:29.335Z,5.47
2017-10-09T10:34:56.820Z,6.23
2017-10-09T10:37:25.055Z,5.60
2017-10-09T10:39:52.537Z,6.53
2017-10-09T10:42:20.045Z,5.57
2017-10-09T10:44:48.038Z,5.63
2017-10-09T10:47:15.519Z,6.03
2017-10-09T10:49:43.017Z,6.20
2017-10-09T10:52:10.511Z,5.60
2017-10-09T10:54:38.007Z,7.27
2017-10-09T10:57:05.474Z,6.70
2017-10-09T10:59:33.749Z,6.20
2017-10-09T11:02:02.008Z,5.93
2017-10-09T11:04:29.500Z,5.43
2017-10-09T11:06:57.754Z,6.77
2017-10-09T11:09:26.020Z,5.87
2017-10-09T11:11:53.500Z,6.23
2017-10-09T11:14:20.997Z,6.23
2017-10-09T11:16:48.478Z,5.80
2017-10-09T11:19:15.957Z,6.60
2017-10-09T11:21:43.438Z,6.47
2017-10-09T11:24:11.700Z,6.67
2017-10-09T11:26:39.934Z,5.57
2017-10-09T11:29:07.441Z,6.20
2017-10-09T11:31:35.679Z,5.70
2017-10-09T11:34:03.186Z,6.57
2017-10-09T11:36:31.443Z,5.70
2017-10-09T11:38:58.946Z,6.63
2017-10-09T11:41:26.431Z,5.40
2017-10-09T11:43:53.940Z,5.20
2017-10-09T11:46:22.162Z,5.30
2017-10-09T11:48:49.642Z,5.43
2017-10-09T11:51:17.155Z,4.70
2017-10-09T11:53:44.624Z,5.67
2017-10-09T11:56:12.127Z,4.47
2017-10-09T11:58:39.627Z,5.60
2017-10-09T12:01:07.147Z,6.20
2017-10-09T12:03:34.598Z,5.50
2017-10-09T12:06:02.071Z,6.17
2017-10-09T12:08:30.319Z,5.40
2017-10-09T12:10:57.843Z,4.53
2017-10-09T12:13:25.331Z,4.90
2017-10-09T12:15:52.811Z,4.30
2017-10-09T12:18:20.321Z,4.90
2017-10-09T12:20:47.797Z,5.70
2017-10-09T12:23:15.300Z,4.60
2017-10-09T12:25:43.543Z,4.23
2017-10-09T12:28:11.015Z,5.07
2017-10-09T12:30:38.499Z,4.20
2017-10-09T12:33:06.748Z,4.77
2017-10-09T12:35:34.275Z,4.00
2017-10-09T12:38:01.760Z,4.30
2017-10-09T12:40:29.282Z,3.80
2017-10-09T12:42:57.178Z,4.00
2017-10-09T12:45:24.804Z,3.97
2017-10-09T12:47:52.290Z,3.93
2017-10-09T12:50:19.747Z,3.40
2017-10-09T12:52:47.238Z,4.50
2017-10-09T12:55:14.708Z,4.00
2017-10-09T12:57:42.995Z,3.70
2017-10-09T13:00:11.247Z,3.50
2017-10-09T13:02:38.731Z,3.43
2017-10-09T13:05:07.039Z,3.27
2017-10-09T13:07:34.547Z,3.80
2017-10-09T13:10:02.031Z,4.00
2017-10-09T13:12:30.286Z,3.97
2017-10-09T13:14:57.780Z,3.90
2017-10-09T13:17:25.274Z,4.10
2017-10-09T13:19:52.780Z,3.10
2017-10-09T13:22:21.053Z,4.00
2017-10-09T13:24:49.308Z,3.60
2017-10-09T13:27:16.776Z,3.30
2017-10-09T13:29:44.287Z,3.67
2017-10-09T13:32:11.750Z,3.30
2017-10-09T13:34:39.235Z,2.70
2017-10-09T13:37:06.723Z,3.60
2017-10-09T13:39:34.951Z,3.80
2017-10-09T13:42:02.782Z,3.90
2017-10-09T13:44:31.015Z,3.40
2017-10-09T13:46:58.531Z,3.40
2017-10-09T13:49:26.013Z,3.30
2017-10-09T13:51:53.502Z,3.40
2017-10-09T13:54:21.771Z,4.00
2017-10-09T13:56:49.260Z,4.00
2017-10-09T13:59:16.759Z,4.00
2017-10-09T14:01:44.248Z,3.07
2017-10-09T14:04:11.747Z,3.80
2017-10-09T14:06:39.215Z,3.90
2017-10-09T14:09:06.695Z,3.80
2017-10-09T14:11:34.191Z,4.53
2017-10-09T14:14:01.671Z,3.80
2017-10-09T14:16:29.991Z,3.40
2017-10-09T14:18:57.459Z,4.40
2017-10-09T14:21:24.932Z,4.07
2017-10-09T14:23:52.434Z,3.40
2017-10-09T14:26:20.047Z,3.10
2017-10-09T14:28:47.567Z,2.87
2017-10-09T14:31:15.048Z,3.30
2017-10-09T14:41:04.995Z,3.40
2017-10-09T14:43:32.500Z,3.23
2017-10-09T14:45:59.969Z,3.40
2017-10-09T14:48:27.433Z,3.30
2017-10-09T14:50:55.040Z,4.00
2017-10-09T14:53:23.186Z,3.70
2017-10-09T14:55:50.685Z,4.10
2017-10-09T14:58:18.171Z,3.60
2017-10-09T15:00:46.449Z,3.87
2017-10-09T15:03:13.936Z,3.90
2017-10-09T15:05:41.433Z,4.73
2017-10-09T15:08:08.936Z,5.07
2017-10-09T15:10:36.420Z,4.83
2017-10-09T15:13:03.935Z,4.80
2017-10-09T15:15:32.188Z,4.77
2017-10-09T15:17:59.707Z,5.13
2017-10-09T15:20:27.196Z,4.83
2017-10-09T15:22:55.430Z,5.83
2017-10-09T15:25:22.948Z,6.20
2017-10-09T15:27:50.408Z,6.27
2017-10-09T15:30:18.689Z,5.10
2017-10-09T15:32:46.919Z,5.90
2017-10-09T15:35:14.439Z,5.67
2017-10-09T15:37:42.671Z,6.57
2017-10-09T15:40:10.195Z,5.83
2017-10-09T15:42:37.711Z,5.63
2017-10-09T15:45:05.931Z,6.60
2017-10-09T15:47:33.459Z,6.37
2017-10-09T15:50:01.696Z,6.60
2017-10-09T15:52:29.215Z,7.17
2017-10-09T15:54:56.700Z,7.13
2017-10-09T15:57:24.220Z,6.60
2017-10-09T15:59:52.471Z,6.97
2017-10-09T16:02:19.978Z,7.20
2017-10-09T16:04:47.513Z,6.73
2017-10-09T16:07:15.779Z,6.60
2017-10-09T16:09:44.030Z,6.70
2017-10-09T16:12:11.523Z,7.53
2017-10-09T16:14:39.814Z,6.20
2017-10-09T16:17:07.282Z,5.80
2017-10-09T16:19:34.787Z,6.47
2017-10-09T16:22:02.305Z,6.27
2017-10-09T16:24:29.823Z,7.27
2017-10-09T16:26:57.304Z,6.67
2017-10-09T16:29:24.836Z,8.00
2017-10-09T16:31:52.331Z,7.30
2017-10-09T16:34:19.819Z,7.43
2017-10-09T16:36:47.324Z,6.53
2017-10-09T16:39:15.579Z,6.27
2017-10-09T16:41:43.101Z,7.23
2017-10-09T16:44:10.576Z,6.27
2017-10-09T16:46:38.058Z,7.03
2017-10-09T16:49:05.561Z,6.97
2017-10-09T16:51:33.053Z,8.00
2017-10-09T16:54:00.542Z,15.07
2017-10-09T16:56:28.089Z,12.30
2017-10-09T16:58:55.603Z,18.97
2017-10-09T17:01:23.111Z,11.67
2017-10-09T17:03:50.637Z,7.13
2017-10-09T17:06:18.136Z,7.47
2017-10-09T17:08:45.609Z,6.50
2017-10-09T17:11:13.868Z,5.83
2017-10-09T17:13:41.344Z,5.93
2017-10-09T17:16:09.598Z,5.67
2017-10-09T17:18:37.073Z,5.80
2017-10-09T17:21:05.322Z,6.03
2017-10-09T17:23:32.874Z,6.30
2017-10-09T17:26:00.357Z,6.03
2017-10-09T17:28:27.839Z,6.40
2017-10-09T17:30:56.119Z,5.90
2017-10-09T17:33:24.359Z,6.10
2017-10-09T17:35:51.851Z,7.77
2017-10-09T17:38:20.130Z,6.37
2017-10-09T17:40:48.358Z,5.83
2017-10-09T17:43:15.864Z,6.67
2017-10-09T17:45:44.101Z,5.43
2017-10-09T17:48:11.607Z,6.53
2017-10-09T17:50:39.112Z,5.60
2017-10-09T17:53:06.575Z,6.30
2017-10-09T17:55:34.084Z,6.20
2017-10-09T17:58:01.573Z,5.20
2017-10-09T18:00:29.089Z,7.10
2017-10-09T18:02:57.342Z,8.70
2017-10-09T18:05:24.844Z,7.00
2017-10-09T18:07:52.435Z,6.87
2017-10-09T18:10:19.935Z,7.83
2017-10-09T18:12:48.195Z,7.33
2017-10-09T18:15:15.683Z,7.13
2017-10-09T18:17:43.927Z,6.80
2017-10-09T18:20:11.432Z,7.40
2017-10-09T18:22:38.892Z,9.80
2017-10-09T18:25:06.398Z,9.93
2017-10-09T18:27:33.909Z,9.20
2017-10-09T18:30:01.389Z,7.80
2017-10-09T18:32:28.857Z,8.70
2017-10-09T18:34:56.350Z,8.00
2017-10-09T18:37:23.828Z,7.50
2017-10-09T18:39:52.087Z,7.43
2017-10-09T18:42:19.573Z,8.23
2017-10-09T18:44:47.081Z,6.97
2017-10-09T18:47:14.547Z,9.20
2017-10-09T18:49:42.079Z,7.80
2017-10-09T18:52:09.548Z,7.53
2017-10-09T18:54:37.059Z,7.23
2017-10-09T18:57:05.307Z,9.40
2017-10-09T18:59:32.779Z,11.10
2017-10-09T19:02:01.059Z,10.37
2017-10-09T19:04:29.300Z,9.70
2017-10-09T19:06:56.828Z,8.77
2017-10-09T19:09:24.312Z,9.80
2017-10-09T19:11:51.818Z,9.43
2017-10-09T19:14:20.069Z,8.90
2017-10-09T19:16:47.655Z,11.07
2017-10-09T19:19:15.913Z,10.20
2017-10-09T19:21:43.391Z,12.50
2017-10-09T19:24:11.646Z,10.77
2017-10-09T19:26:39.123Z,11.47
2017-10-09T19:29:07.388Z,10.70
2017-10-09T19:31:35.662Z,14.20
2017-10-09T19:34:03.950Z,14.17
2017-10-09T19:36:32.198Z,12.17
2017-10-09T19:38:59.664Z,12.60
2017-10-09T19:41:27.959Z,9.77
2017-10-09T19:43:56.199Z,10.73
2017-10-09T19:46:23.705Z,8.03
2017-10-09T19:48:51.954Z,8.10
2017-10-09T19:51:19.434Z,7.70
2017-10-09T19:53:47.694Z,6.93
2017-10-09T19:56:15.176Z,7.33
2017-10-09T19:58:42.679Z,6.93
2017-10-09T20:01:10.198Z,7.43
2017-10-09T20:03:37.697Z,7.97
2017-10-09T20:06:05.170Z,7.20
2017-10-09T20:08:32.655Z,6.80
2017-10-09T20:11:00.928Z,6.97
2017-10-09T20:13:28.404Z,8.10
2017-10-09T20:15:55.890Z,8.67
2017-10-09T20:18:23.406Z,8.50
2017-10-09T20:20:50.852Z,8.20
2017-10-09T20:23:18.360Z,8.90
2017-10-09T20:25:45.851Z,7.00
2017-10-09T20:28:13.341Z,8.82
2017-10-09T20:30:40.821Z,6.83
2017-10-09T20:33:08.318Z,8.07
2017-10-09T20:35:35.801Z,7.80
2017-10-09T20:38:03.291Z,6.70
2017-10-09T20:40:30.793Z,6.70
2017-10-09T20:42:58.299Z,6.70
2017-10-09T20:45:26.567Z,7.70
2017-10-09T20:47:54.036Z,7.28
2017-10-09T20:50:22.276Z,7.03
2017-10-09T20:52:49.771Z,7.18
2017-10-09T20:55:18.020Z,7.32
2017-10-09T20:57:45.497Z,7.57
2017-10-09T21:00:13.752Z,8.10
2017-10-09T21:02:41.235Z,8.68
2017-10-09T21:05:09.497Z,8.65
2017-10-09T21:07:37.004Z,8.02
2017-10-09T21:10:04.490Z,8.60
2017-10-09T21:12:31.981Z,8.13
2017-10-09T21:15:00.259Z,8.00
2017-10-09T21:17:28.507Z,7.07
2017-10-09T21:19:55.992Z,8.10
2017-10-09T21:22:24.260Z,8.45
2017-10-09T21:24:51.710Z,8.60
2017-10-09T21:27:19.235Z,9.52
2017-10-09T21:29:46.719Z,7.80
2017-10-09T21:32:14.216Z,7.28
2017-10-09T21:34:42.469Z,7.00
2017-10-09T21:37:09.951Z,7.60
2017-10-09T21:39:38.229Z,7.33
2017-10-09T21:42:06.448Z,8.20
2017-10-09T21:44:33.964Z,7.43
2017-10-09T21:47:02.204Z,7.87
2017-10-09T21:49:29.735Z,7.10
2017-10-09T21:51:57.232Z,7.03
2017-10-09T21:54:24.708Z,8.20
2017-10-09T21:56:52.967Z,7.90
2017-10-09T21:59:20.487Z,8.35
2017-10-09T22:01:47.968Z,7.20
2017-10-09T22:04:15.439Z,7.93
2017-10-09T22:06:42.961Z,6.78
2017-10-09T22:09:10.446Z,6.93
2017-10-09T22:11:37.959Z,7.22
2017-10-09T22:14:05.448Z,5.22
2017-10-09T22:16:32.949Z,4.90
2017-10-09T22:19:00.419Z,5.30
2017-10-09T22:21:28.666Z,5.62
2017-10-09T22:23:56.159Z,5.87
2017-10-09T22:26:23.761Z,4.87
2017-10-09T22:28:51.244Z,6.00
2017-10-09T22:31:18.734Z,5.65
2017-10-09T22:33:47.009Z,6.37
2017-10-09T22:36:15.260Z,6.68
2017-10-09T22:38:42.783Z,6.47
2017-10-09T22:41:10.260Z,6.35
2017-10-09T22:43:37.766Z,6.85
2017-10-09T22:46:05.998Z,7.60
2017-10-09T22:48:33.495Z,7.95
2017-10-09T22:51:01.759Z,7.87
2017-10-09T22:53:29.239Z,7.20
2017-10-09T22:55:56.727Z,7.80
2017-10-09T22:58:24.238Z,6.75
2017-10-09T23:00:52.491Z,6.50
2017-10-09T23:03:19.995Z,6.53
2017-10-09T23:05:47.500Z,6.93
2017-10-09T23:08:15.802Z,7.78
2017-10-09T23:10:43.266Z,8.07
2017-10-09T23:13:11.532Z,7.85
2017-10-09T23:15:39.044Z,7.22
2017-10-09T23:18:06.505Z,8.57
2017-10-09T23:20:34.009Z,7.40
2017-10-09T23:23:01.481Z,8.45
2017-10-09T23:25:28.999Z,8.18
2017-10-09T23:27:56.472Z,7.57
2017-10-09T23:30:23.975Z,9.68
2017-10-09T23:32:52.239Z,7.05
2017-10-09T23:35:20.509Z,10.00
2017-10-09T23:37:48.780Z,11.85
2017-10-09T23:40:16.275Z,9.60
2017-10-09T23:42:43.763Z,7.72
2017-10-09T23:45:11.244Z,7.97
2017-10-09T23:47:38.748Z,7.22
2017-10-09T23:50:06.204Z,6.60
2017-10-09T23:52:33.694Z,7.93
2017-10-09T23:55:01.202Z,8.25
2017-10-09T23:57:29.444Z,11.00
2017-10-09T23:59:56.939Z,9.10
